createdAt,value
2019-04-01T00:02:21.034Z,15.63
2019-04-01T00:04:56.057Z,19.23
2019-04-01T00:07:24.550Z,22.30
2019-04-01T00:09:52.869Z,17.48
2019-04-01T00:12:28.354Z,19.07
2019-04-01T00:14:56.738Z,20.77
2019-04-01T00:17:25.052Z,23.65
2019-04-01T00:20:00.952Z,19.10
2019-04-01T00:22:29.378Z,19.00
2019-04-01T00:24:58.048Z,22.02
2019-04-01T00:27:33.133Z,19.55
2019-04-01T00:30:01.559Z,20.70
2019-04-01T00:32:29.866Z,20.00
2019-04-01T00:35:04.891Z,24.65
2019-04-01T00:37:33.355Z,22.10
2019-04-01T00:40:01.717Z,22.37
2019-04-01T00:42:41.577Z,25.50
2019-04-01T00:45:11.600Z,21.55
2019-04-01T00:47:39.976Z,23.87
2019-04-01T00:50:14.677Z,22.27
2019-04-01T00:52:43.113Z,27.93
2019-04-01T00:55:18.457Z,25.57
2019-04-01T00:57:53.761Z,24.18
2019-04-01T01:00:22.554Z,22.87
2019-04-01T01:02:52.285Z,28.98
2019-04-01T01:05:27.092Z,23.92
2019-04-01T01:07:56.185Z,21.23
2019-04-01T01:10:24.523Z,21.07
2019-04-01T01:13:00.044Z,22.10
2019-04-01T01:15:28.361Z,26.68
2019-04-01T01:17:57.056Z,24.67
2019-04-01T01:20:31.672Z,29.52
2019-04-01T01:23:00.172Z,29.67
2019-04-01T01:25:28.873Z,28.57
2019-04-01T01:28:03.982Z,30.43
2019-04-01T01:30:32.340Z,27.40
2019-04-01T01:33:01.066Z,27.98
2019-04-01T01:35:36.142Z,26.30
2019-04-01T01:38:04.571Z,25.17
2019-04-01T01:40:33.251Z,27.98
2019-04-01T01:43:09.093Z,24.23
2019-04-01T01:45:37.609Z,29.35
2019-04-01T01:48:06.295Z,24.32
2019-04-01T01:50:41.889Z,27.07
2019-04-01T01:53:10.185Z,27.73
2019-04-01T01:55:38.489Z,26.52
2019-04-01T01:58:13.419Z,27.50
2019-04-01T02:00:41.902Z,29.90
2019-04-01T02:03:10.681Z,31.33
2019-04-01T02:05:46.005Z,27.00
2019-04-01T02:08:14.321Z,26.95
2019-04-01T02:10:42.625Z,28.98
2019-04-01T02:13:20.142Z,30.30
2019-04-01T02:15:48.045Z,28.17
2019-04-01T02:18:16.342Z,27.73
2019-04-01T02:20:51.793Z,24.23
2019-04-01T02:23:20.638Z,26.85
2019-04-01T02:25:49.325Z,30.32
2019-04-01T02:28:24.816Z,29.20
2019-04-01T02:30:53.122Z,28.47
2019-04-01T02:33:21.581Z,30.35
2019-04-01T02:35:56.645Z,26.70
2019-04-01T02:38:25.045Z,28.12
2019-04-01T02:40:53.372Z,26.65
2019-04-01T02:43:28.731Z,26.12
2019-04-01T02:45:57.244Z,31.05
2019-04-01T02:48:26.043Z,30.35
2019-04-01T02:51:01.232Z,25.57
2019-04-01T02:53:29.958Z,30.40
2019-04-01T02:55:58.640Z,29.35
2019-04-01T02:58:40.312Z,29.15
2019-04-01T03:01:08.614Z,23.75
2019-04-01T03:03:36.993Z,27.82
2019-04-01T03:06:12.771Z,23.25
2019-04-01T03:08:41.104Z,27.58
2019-04-01T03:11:10.766Z,25.52
2019-04-01T03:13:46.861Z,24.12
2019-04-01T03:16:15.637Z,28.95
2019-04-01T03:18:44.671Z,27.40
2019-04-01T03:21:20.305Z,24.90
2019-04-01T03:23:49.006Z,22.02
2019-04-01T03:26:17.776Z,27.35
2019-04-01T03:28:52.684Z,25.60
2019-04-01T03:31:21.197Z,25.75
2019-04-01T03:33:49.746Z,26.12
2019-04-01T03:36:25.399Z,26.87
2019-04-01T03:38:53.830Z,28.62
2019-04-01T08:15:57.785Z,23.42
2019-04-01T08:18:26.436Z,19.57
2019-04-01T08:20:54.781Z,14.45
2019-04-01T08:23:30.062Z,24.00
2019-04-01T08:25:58.626Z,21.05
2019-04-01T08:28:27.301Z,17.98
2019-04-01T08:31:02.730Z,18.80
2019-04-01T08:33:31.217Z,20.12
2019-04-01T08:35:59.554Z,22.90
2019-04-01T08:38:34.691Z,26.07
2019-04-01T08:41:03.026Z,19.15
2019-04-01T08:43:31.325Z,19.85
2019-04-01T08:46:05.834Z,22.02
2019-04-01T08:48:35.680Z,19.32
2019-04-01T08:51:04.665Z,23.33
2019-04-01T08:53:33.120Z,22.60
2019-04-01T08:56:02.206Z,26.75
2019-04-01T08:58:30.925Z,25.50
2019-04-01T09:00:59.227Z,39.90
2019-04-01T09:03:28.453Z,23.32
2019-04-01T09:05:57.057Z,24.00
2019-04-01T09:08:25.742Z,29.20
2019-04-01T09:10:54.035Z,27.95
2019-04-01T09:13:22.657Z,34.35
2019-04-01T09:15:51.272Z,22.30
2019-04-01T09:18:19.996Z,22.40
2019-04-01T09:20:48.692Z,26.97
2019-04-01T09:23:17.744Z,76.62
2019-04-01T09:25:46.052Z,23.22
2019-04-01T09:28:15.117Z,28.62
2019-04-01T09:30:43.809Z,29.92
2019-04-01T09:33:12.477Z,27.50
2019-04-01T09:35:41.434Z,22.40
2019-04-01T09:38:09.870Z,25.00
2019-04-01T09:40:38.597Z,28.62
2019-04-01T09:43:06.920Z,25.10
2019-04-01T09:45:35.655Z,27.45
2019-04-01T09:48:10.180Z,28.45
2019-04-01T09:50:40.375Z,29.50
2019-04-01T09:53:08.949Z,29.27
2019-04-01T09:55:37.633Z,24.60
2019-04-01T09:58:07.628Z,33.60
2019-04-01T10:00:36.235Z,24.13
2019-04-01T10:03:04.590Z,31.10
2019-04-01T10:05:34.591Z,29.70
2019-04-01T10:08:08.629Z,32.07
2019-04-01T10:10:36.949Z,29.82
2019-04-01T10:13:12.309Z,33.10
2019-04-01T10:15:40.612Z,31.82
2019-04-01T10:18:08.913Z,31.90
2019-04-01T10:20:37.837Z,30.52
2019-04-01T10:23:06.333Z,37.53
2019-04-01T10:25:39.353Z,34.65
2019-04-01T10:28:07.745Z,32.50
2019-04-01T10:30:36.079Z,30.95
2019-04-01T10:33:10.872Z,31.48
2019-04-01T10:35:40.155Z,31.12
2019-04-01T10:38:08.465Z,34.58
2019-04-01T10:40:44.041Z,32.70
2019-04-01T10:43:12.435Z,34.23
2019-04-01T10:45:40.941Z,32.42
2019-04-01T10:48:15.718Z,31.35
2019-04-01T10:50:50.636Z,34.85
2019-04-01T10:53:19.194Z,31.65
2019-04-01T10:55:53.988Z,33.88
2019-04-01T10:58:22.747Z,33.15
2019-04-01T11:00:51.520Z,31.75
2019-04-01T11:03:27.144Z,30.72
2019-04-01T11:05:56.288Z,33.00
2019-04-01T11:08:24.929Z,35.25
2019-04-01T11:10:59.795Z,37.93
2019-04-01T11:13:28.437Z,42.73
2019-04-01T11:15:56.781Z,35.35
2019-04-01T11:18:31.857Z,37.25
2019-04-01T11:21:00.226Z,36.38
2019-04-01T11:23:28.595Z,34.60
2019-04-01T11:26:03.514Z,28.83
2019-04-01T11:28:32.461Z,30.72
2019-04-01T11:31:01.129Z,34.78
2019-04-01T11:33:36.925Z,34.55
2019-04-01T11:36:05.531Z,34.33
2019-04-01T11:38:34.174Z,31.65
2019-04-01T11:41:09.590Z,35.43
2019-04-01T11:43:38.092Z,33.02
2019-04-01T11:46:06.741Z,33.95
2019-04-01T11:48:42.902Z,36.68
2019-04-01T11:51:32.014Z,35.65
2019-04-01T11:53:55.110Z,34.45
2019-04-01T11:56:26.376Z,34.35
2019-04-01T11:58:56.597Z,34.63
2019-04-01T12:01:31.185Z,33.93
2019-04-01T12:03:59.904Z,37.28
2019-04-01T12:06:28.582Z,35.38
2019-04-01T12:09:03.453Z,30.77
2019-04-01T12:11:31.793Z,32.40
2019-04-01T12:14:00.370Z,32.00
2019-04-01T12:16:36.033Z,32.45
2019-04-01T12:19:04.337Z,34.67
2019-04-01T12:21:32.700Z,34.58
2019-04-01T12:24:08.644Z,37.15
2019-04-01T12:26:44.338Z,34.38
2019-04-01T12:29:19.229Z,34.45
2019-04-01T12:31:48.209Z,39.90
2019-04-01T12:34:16.899Z,33.30
2019-04-01T12:36:53.424Z,34.70
2019-04-01T12:39:22.044Z,35.17
2019-04-01T12:41:50.430Z,36.05
2019-04-01T12:44:25.935Z,42.25
2019-04-01T12:46:54.358Z,32.65
2019-04-01T12:49:22.971Z,32.98
2019-04-01T12:51:51.753Z,36.45
2019-04-01T12:54:20.362Z,34.15
2019-04-01T12:56:49.040Z,36.42
2019-04-01T12:59:17.862Z,30.35
2019-04-01T13:01:46.188Z,39.48
2019-04-01T13:04:15.255Z,39.38
2019-04-01T13:06:43.854Z,47.20
2019-04-01T13:09:12.613Z,35.10
2019-04-01T13:11:41.259Z,34.35
2019-04-01T13:14:09.943Z,42.05
2019-04-01T13:16:38.281Z,31.93
2019-04-01T13:19:06.646Z,37.42
2019-04-01T13:21:35.121Z,32.90
2019-04-01T13:24:04.987Z,45.08
2019-04-01T13:26:33.520Z,35.83
2019-04-01T13:29:02.070Z,37.70
2019-04-01T13:31:30.700Z,36.65
2019-04-01T13:33:59.127Z,39.20
2019-04-01T13:36:27.765Z,46.63
2019-04-01T13:38:56.777Z,36.90
2019-04-01T13:41:25.341Z,43.33
2019-04-01T13:43:53.792Z,45.67
2019-04-01T13:46:22.409Z,39.67
2019-04-01T13:48:57.424Z,69.32
2019-04-01T13:51:21.166Z,37.93
2019-04-01T13:53:49.684Z,38.40
2019-04-01T13:56:18.413Z,35.25
2019-04-01T13:58:49.686Z,44.98
2019-04-01T14:01:17.813Z,41.50
2019-04-01T14:03:46.112Z,38.85
2019-04-01T14:06:15.210Z,35.10
2019-04-01T14:08:43.849Z,37.40
2019-04-01T14:11:12.598Z,41.92
2019-04-01T14:13:41.201Z,49.63
2019-04-01T14:16:09.588Z,34.13
2019-04-01T14:18:37.941Z,36.45
2019-04-01T14:21:15.871Z,37.83
2019-04-01T14:23:36.780Z,39.75
2019-04-01T14:26:05.144Z,33.28
2019-04-01T14:28:33.465Z,40.40
2019-04-01T14:31:02.034Z,36.90
2019-04-01T14:33:32.604Z,39.00
2019-04-01T14:36:00.802Z,37.05
2019-04-01T14:38:29.361Z,41.73
2019-04-01T14:40:58.240Z,38.30
2019-04-01T14:43:26.759Z,37.93
2019-04-01T14:45:55.826Z,39.75
2019-04-01T14:48:24.511Z,33.23
2019-04-01T14:50:52.898Z,40.48
2019-04-01T14:53:21.578Z,47.83
2019-04-01T14:55:50.117Z,40.95
2019-04-01T14:58:18.520Z,38.23
2019-04-01T15:00:47.626Z,38.60
2019-04-01T15:03:16.263Z,33.10
2019-04-01T15:05:45.793Z,42.55
2019-04-01T15:08:14.398Z,49.50
2019-04-01T15:10:44.155Z,37.33
2019-04-01T15:13:13.469Z,40.67
2019-04-01T15:15:42.189Z,38.78
2019-04-01T15:18:10.890Z,41.02
2019-04-01T15:20:39.213Z,47.20
2019-04-01T15:23:07.837Z,41.50
2019-04-01T15:25:36.498Z,39.90
2019-04-01T15:28:04.814Z,39.50
2019-04-01T15:30:33.436Z,39.75
2019-04-01T15:33:02.172Z,37.28
2019-04-01T15:35:30.807Z,37.28
2019-04-01T15:37:59.564Z,44.35
2019-04-01T15:40:28.267Z,45.73
2019-04-01T15:42:56.900Z,41.48
2019-04-01T15:45:25.211Z,49.75
2019-04-01T15:47:53.608Z,39.63
2019-04-01T15:50:28.846Z,39.83
2019-04-01T15:52:52.537Z,42.08
2019-04-01T15:55:21.122Z,42.55
2019-04-01T15:57:49.816Z,39.13
2019-04-01T16:00:19.697Z,44.77
2019-04-01T16:02:48.154Z,36.10
2019-04-01T16:05:16.677Z,44.25
2019-04-01T16:07:45.545Z,38.13
2019-04-01T16:10:13.841Z,37.60
2019-04-01T16:12:42.409Z,40.55
2019-04-01T16:15:11.014Z,40.48
2019-04-01T16:17:39.352Z,43.30
2019-04-01T16:20:07.733Z,38.40
2019-04-01T16:22:36.320Z,40.33
2019-04-01T16:25:06.673Z,42.75
2019-04-01T16:27:35.045Z,41.13
2019-04-01T16:30:03.795Z,39.73
2019-04-01T16:32:32.256Z,42.43
2019-04-01T16:35:00.562Z,44.42
2019-04-01T16:37:29.191Z,39.75
2019-04-01T16:39:57.601Z,37.63
2019-04-01T16:42:26.159Z,35.98
2019-04-01T16:44:54.561Z,39.15
2019-04-01T16:47:23.154Z,34.30
2019-04-01T16:49:51.534Z,43.73
2019-04-01T16:52:19.918Z,41.53
2019-04-01T16:54:52.112Z,42.40
2019-04-01T16:57:20.822Z,52.53
2019-04-01T16:59:49.540Z,45.83
2019-04-01T17:02:18.630Z,41.90
2019-04-01T17:04:48.415Z,38.28
2019-04-01T17:07:19.761Z,42.25
2019-04-01T17:09:48.396Z,41.60
2019-04-01T17:12:16.733Z,43.73
2019-04-01T17:14:45.392Z,45.90
2019-04-01T17:17:13.981Z,41.70
2019-04-01T17:19:42.769Z,40.65
2019-04-01T17:22:11.588Z,41.75
2019-04-01T17:24:40.510Z,44.25
2019-04-01T17:27:11.258Z,45.45
2019-04-01T17:29:41.337Z,41.20
2019-04-01T17:32:09.797Z,42.85
2019-04-01T17:34:38.537Z,44.35
2019-04-01T17:37:07.169Z,42.08
2019-04-01T17:39:35.907Z,39.90
2019-04-01T17:42:05.176Z,36.70
2019-04-01T17:44:33.654Z,38.25
2019-04-01T17:47:02.324Z,43.68
2019-04-01T17:49:31.158Z,41.08
2019-04-01T17:52:00.100Z,40.43
2019-04-01T17:54:28.500Z,42.78
2019-04-01T17:56:56.809Z,43.02
2019-04-01T17:59:25.841Z,43.75
2019-04-01T18:01:57.041Z,38.88
2019-04-01T18:04:25.353Z,44.33
2019-04-01T18:06:53.672Z,47.70
2019-04-01T18:09:22.165Z,50.55
2019-04-01T18:11:50.861Z,49.45
2019-04-01T18:14:19.579Z,46.08
2019-04-01T18:16:48.225Z,51.92
2019-04-01T18:19:16.566Z,50.33
2019-04-01T18:21:44.917Z,44.70
2019-04-01T18:24:13.420Z,46.28
2019-04-01T18:26:41.821Z,45.95
2019-04-01T18:29:10.377Z,41.85
2019-04-01T18:31:38.749Z,42.38
2019-04-01T18:34:07.350Z,40.45
2019-04-01T18:36:36.113Z,47.23
2019-04-01T18:39:07.361Z,51.40
2019-04-01T18:41:35.923Z,51.70
2019-04-01T18:44:04.989Z,47.30
2019-04-01T18:46:33.692Z,48.45
2019-04-01T18:49:02.008Z,47.00
2019-04-01T18:51:30.370Z,44.95
2019-04-01T18:53:58.929Z,48.70
2019-04-01T18:56:28.227Z,46.33
2019-04-01T18:58:57.989Z,54.65
2019-04-01T19:01:26.293Z,48.98
2019-04-01T19:03:54.615Z,46.35
2019-04-01T19:06:23.308Z,48.25
2019-04-01T19:08:51.963Z,52.45
2019-04-01T19:11:20.693Z,57.65
2019-04-01T19:13:48.998Z,58.17
2019-04-01T19:16:17.585Z,52.93
2019-04-01T19:18:46.247Z,47.90
2019-04-01T19:21:14.719Z,53.38
2019-04-01T19:23:43.105Z,41.53
2019-04-01T19:26:11.485Z,49.20
2019-04-01T19:28:39.799Z,44.80
2019-04-01T19:31:08.109Z,50.80
2019-04-01T19:33:38.070Z,51.77
2019-04-01T19:36:06.681Z,46.90
2019-04-01T19:38:35.596Z,48.68
2019-04-01T19:41:04.005Z,51.42
2019-04-01T19:43:32.332Z,51.88
2019-04-01T19:46:00.714Z,49.13
2019-04-01T19:48:29.302Z,50.00
2019-04-01T19:50:59.181Z,50.30
2019-04-01T19:53:27.894Z,46.10
2019-04-01T19:55:56.987Z,52.33
2019-04-01T19:58:25.607Z,52.88
2019-04-01T20:00:54.781Z,50.58
2019-04-01T20:03:25.366Z,46.02
2019-04-01T20:05:54.198Z,47.33
2019-04-01T20:08:22.885Z,54.25
2019-04-01T20:10:51.561Z,50.95
2019-04-01T20:13:19.921Z,45.45
2019-04-01T20:15:48.518Z,44.67
2019-04-01T20:18:17.102Z,50.65
2019-04-01T20:20:45.515Z,54.40
2019-04-01T20:23:13.885Z,49.90
2019-04-01T20:25:42.680Z,51.90
2019-04-01T20:28:11.086Z,52.93
2019-04-01T20:30:42.475Z,57.48
2019-04-01T20:33:17.508Z,50.00
2019-04-01T20:35:40.410Z,51.85
2019-04-01T20:38:08.780Z,53.05
2019-04-01T20:40:37.429Z,49.77
2019-04-01T20:43:06.220Z,50.78
2019-04-01T20:45:34.748Z,62.40
2019-04-01T20:48:04.408Z,52.78
2019-04-01T20:50:33.477Z,51.20
2019-04-01T20:53:01.784Z,52.23
2019-04-01T20:55:30.169Z,47.50
2019-04-01T20:57:58.769Z,52.17
2019-04-01T21:00:27.174Z,50.60
2019-04-01T21:02:55.677Z,46.65
2019-04-01T21:05:24.556Z,49.23
2019-04-01T21:07:53.495Z,53.98
2019-04-01T21:10:22.155Z,65.42
2019-04-01T21:12:50.806Z,56.23
2019-04-01T21:15:19.545Z,54.83
2019-04-01T21:17:48.184Z,57.60
2019-04-01T21:20:16.568Z,52.58
2019-04-01T21:22:44.872Z,54.65
2019-04-01T21:25:14.257Z,49.85
2019-04-01T21:27:42.921Z,49.60
2019-04-01T21:30:11.806Z,58.30
2019-04-01T21:32:40.301Z,51.15
2019-04-01T21:35:09.441Z,48.02
2019-04-01T21:37:38.055Z,47.03
2019-04-01T21:40:07.277Z,49.73
2019-04-01T21:42:35.849Z,57.05
2019-04-01T21:45:06.568Z,55.28
2019-04-01T21:47:35.270Z,50.60
2019-04-01T21:50:06.485Z,59.25
2019-04-01T21:52:35.518Z,48.60
2019-04-01T21:55:07.717Z,52.03
2019-04-01T22:00:03.055Z,55.95
2019-04-01T22:02:36.092Z,52.95
2019-04-01T22:05:01.836Z,54.03
2019-04-01T22:07:30.493Z,54.42
2019-04-01T22:09:59.426Z,58.20
2019-04-01T22:12:27.857Z,52.25
2019-04-01T22:14:56.213Z,53.75
2019-04-01T22:17:24.517Z,56.37
2019-04-01T22:19:53.185Z,51.05
2019-04-01T22:22:21.837Z,55.73
2019-04-01T22:24:50.177Z,53.02
2019-04-01T22:27:18.540Z,55.60
2019-04-01T22:29:47.033Z,55.48
2019-04-01T22:32:15.449Z,55.67
2019-04-01T22:34:43.996Z,62.10
2019-04-01T22:37:12.756Z,54.70
2019-04-01T22:39:41.361Z,59.85
2019-04-01T22:42:09.716Z,51.92
2019-04-01T22:44:38.037Z,59.83
2019-04-01T22:47:06.692Z,60.40
2019-04-01T22:49:35.340Z,57.15
2019-04-01T22:52:06.253Z,58.20
2019-04-01T22:54:34.745Z,55.52
2019-04-01T22:57:03.511Z,55.75
2019-04-01T22:59:32.216Z,58.17
2019-04-01T23:02:00.945Z,59.90
2019-04-01T23:04:29.545Z,62.13
2019-04-01T23:06:58.286Z,56.63
2019-04-01T23:09:26.598Z,58.75
2019-04-01T23:11:55.214Z,54.08
2019-04-01T23:14:23.596Z,62.33
2019-04-01T23:16:52.201Z,53.10
2019-04-01T23:19:20.842Z,55.92
2019-04-01T23:21:49.569Z,47.13
2019-04-01T23:24:18.202Z,57.43
2019-04-01T23:26:46.537Z,62.95
2019-04-01T23:29:15.165Z,55.90
2019-04-01T23:31:44.290Z,54.50
2019-04-01T23:34:13.209Z,51.00
2019-04-01T23:36:42.661Z,49.63
2019-04-01T23:39:11.147Z,56.42
2019-04-01T23:41:39.496Z,46.18
2019-04-01T23:44:08.104Z,50.70
2019-04-01T23:46:36.902Z,55.48
2019-04-01T23:49:05.498Z,51.40
2019-04-01T23:51:34.165Z,52.10
2019-04-01T23:54:02.921Z,53.10
2019-04-01T23:56:31.538Z,56.33
2019-04-01T23:58:59.901Z,52.15
